sensor_id;sensor_type;location;lat;lon;timestamp;temperature;humidity
10433;DHT22;5263;48.680;9.004;2023-05-10T00:01:38;12.50;99.90
10433;DHT22;5263;48.680;9.004;2023-05-10T00:04:03;12.60;99.90
10433;DHT22;5263;48.680;9.004;2023-05-10T00:06:29;12.70;99.90
10433;DHT22;5263;48.680;9.004;2023-05-10T00:08:55;12.80;99.90
10433;DHT22;5263;48.680;9.004;2023-05-10T00:11:21;12.80;99.90
10433;DHT22;5263;48.680;9.004;2023-05-10T00:13:46;12.80;99.90
10433;DHT22;5263;48.680;9.004;2023-05-10T00:16:12;12.80;99.90
10433;DHT22;5263;48.680;9.004;2023-05-10T00:18:38;12.90;99.90
10433;DHT22;5263;48.680;9.004;2023-05-10T00:21:04;12.80;99.90
10433;DHT22;5263;48.680;9.004;2023-05-10T00:23:30;12.70;99.90
10433;DHT22;5263;48.680;9.004;2023-05-10T00:25:56;12.70;99.90
10433;DHT22;5263;48.680;9.004;2023-05-10T00:28:21;12.60;99.90
10433;DHT22;5263;48.680;9.004;2023-05-10T00:30:47;12.40;99.90
10433;DHT22;5263;48.680;9.004;2023-05-10T00:33:13;12.40;99.90
10433;DHT22;5263;48.680;9.004;2023-05-10T00:35:38;12.30;99.90
10433;DHT22;5263;48.680;9.004;2023-05-10T00:38:04;12.20;99.90
10433;DHT22;5263;48.680;9.004;2023-05-10T00:40:30;12.20;99.90
10433;DHT22;5263;48.680;9.004;2023-05-10T00:42:56;12.20;99.90
10433;DHT22;5263;48.680;9.004;2023-05-10T00:45:22;12.20;99.90
10433;DHT22;5263;48.680;9.004;2023-05-10T00:47:48;12.20;99.90
10433;DHT22;5263;48.680;9.004;2023-05-10T00:50:14;12.30;99.90
10433;DHT22;5263;48.680;9.004;2023-05-10T00:52:41;12.30;99.90
10433;DHT22;5263;48.680;9.004;2023-05-10T00:55:09;12.30;99.90
10433;DHT22;5263;48.680;9.004;2023-05-10T00:57:36;12.20;99.90
10433;DHT22;5263;48.680;9.004;2023-05-10T01:00:03;12.20;99.90
10433;DHT22;5263;48.680;9.004;2023-05-10T01:02:28;12.20;99.90
10433;DHT22;5263;48.680;9.004;2023-05-10T01:04:55;12.20;99.90
10433;DHT22;5263;48.680;9.004;2023-05-10T01:07:20;12.20;99.90
10433;DHT22;5263;48.680;9.004;2023-05-10T01:09:46;12.20;99.90
10433;DHT22;5263;48.680;9.004;2023-05-10T01:12:12;12.20;99.90
10433;DHT22;5263;48.680;9.004;2023-05-10T01:14:38;12.20;99.90
10433;DHT22;5263;48.680;9.004;2023-05-10T01:17:05;12.20;99.90
10433;DHT22;5263;48.680;9.004;2023-05-10T01:19:31;12.20;99.90
10433;DHT22;5263;48.680;9.004;2023-05-10T01:25:11;12.20;99.90
10433;DHT22;5263;48.680;9.004;2023-05-10T01:33:59;12.20;99.90
10433;DHT22;5263;48.680;9.004;2023-05-10T01:39:08;12.10;99.90
10433;DHT22;5263;48.680;9.004;2023-05-10T01:42:03;12.10;99.90
10433;DHT22;5263;48.680;9.004;2023-05-10T01:44:43;12.10;99.90
10433;DHT22;5263;48.680;9.004;2023-05-10T01:47:19;12.10;99.90
10433;DHT22;5263;48.680;9.004;2023-05-10T01:49:50;12.10;99.90
10433;DHT22;5263;48.680;9.004;2023-05-10T01:52:20;12.10;99.90
10433;DHT22;5263;48.680;9.004;2023-05-10T01:54:55;12.10;99.90
10433;DHT22;5263;48.680;9.004;2023-05-10T01:57:25;12.00;99.90
10433;DHT22;5263;48.680;9.004;2023-05-10T01:59:52;12.10;99.90
10433;DHT22;5263;48.680;9.004;2023-05-10T02:02:21;12.00;99.90
10433;DHT22;5263;48.680;9.004;2023-05-10T02:04:49;12.00;99.90
10433;DHT22;5263;48.680;9.004;2023-05-10T02:07:16;12.10;99.90
10433;DHT22;5263;48.680;9.004;2023-05-10T02:09:44;12.00;99.90
10433;DHT22;5263;48.680;9.004;2023-05-10T02:12:13;12.00;99.90
10433;DHT22;5263;48.680;9.004;2023-05-10T02:14:41;12.00;99.90
10433;DHT22;5263;48.680;9.004;2023-05-10T02:17:09;11.90;99.90
10433;DHT22;5263;48.680;9.004;2023-05-10T02:19:37;11.90;99.90
10433;DHT22;5263;48.680;9.004;2023-05-10T02:22:04;11.80;99.90
10433;DHT22;5263;48.680;9.004;2023-05-10T02:24:30;11.70;99.90
10433;DHT22;5263;48.680;9.004;2023-05-10T02:26:57;11.50;99.90
10433;DHT22;5263;48.680;9.004;2023-05-10T02:29:25;11.50;99.90
10433;DHT22;5263;48.680;9.004;2023-05-10T02:31:53;11.60;99.90
10433;DHT22;5263;48.680;9.004;2023-05-10T02:34:21;11.60;99.90
10433;DHT22;5263;48.680;9.004;2023-05-10T02:36:48;11.50;99.90
10433;DHT22;5263;48.680;9.004;2023-05-10T02:39:14;11.50;99.90
10433;DHT22;5263;48.680;9.004;2023-05-10T02:41:41;11.50;99.90
10433;DHT22;5263;48.680;9.004;2023-05-10T02:44:08;11.40;99.90
10433;DHT22;5263;48.680;9.004;2023-05-10T02:46:34;11.40;99.90
10433;DHT22;5263;48.680;9.004;2023-05-10T02:49:01;11.50;99.90
10433;DHT22;5263;48.680;9.004;2023-05-10T02:51:31;11.40;99.90
10433;DHT22;5263;48.680;9.004;2023-05-10T02:54:04;11.40;99.90
10433;DHT22;5263;48.680;9.004;2023-05-10T02:56:34;11.60;99.90
10433;DHT22;5263;48.680;9.004;2023-05-10T02:59:01;11.60;99.90
10433;DHT22;5263;48.680;9.004;2023-05-10T03:01:26;11.50;99.90
10433;DHT22;5263;48.680;9.004;2023-05-10T03:03:52;11.50;99.90
10433;DHT22;5263;48.680;9.004;2023-05-10T03:06:17;11.50;99.90
10433;DHT22;5263;48.680;9.004;2023-05-10T03:08:44;11.50;99.90
10433;DHT22;5263;48.680;9.004;2023-05-10T03:20:03;11.50;99.90
10433;DHT22;5263;48.680;9.004;2023-05-10T03:22:44;11.50;99.90
10433;DHT22;5263;48.680;9.004;2023-05-10T03:25:11;11.40;99.90
10433;DHT22;5263;48.680;9.004;2023-05-10T03:27:40;11.50;99.90
10433;DHT22;5263;48.680;9.004;2023-05-10T03:30:09;11.40;99.90
10433;DHT22;5263;48.680;9.004;2023-05-10T03:32:35;11.30;99.90
10433;DHT22;5263;48.680;9.004;2023-05-10T03:35:06;11.20;99.90
10433;DHT22;5263;48.680;9.004;2023-05-10T03:37:32;11.20;99.90
10433;DHT22;5263;48.680;9.004;2023-05-10T03:39:58;11.40;99.90
10433;DHT22;5263;48.680;9.004;2023-05-10T03:42:23;11.40;99.90
10433;DHT22;5263;48.680;9.004;2023-05-10T03:44:49;11.50;99.90
10433;DHT22;5263;48.680;9.004;2023-05-10T03:47:15;11.50;99.90
10433;DHT22;5263;48.680;9.004;2023-05-10T03:49:40;11.40;99.90
10433;DHT22;5263;48.680;9.004;2023-05-10T03:52:06;11.40;99.90
10433;DHT22;5263;48.680;9.004;2023-05-10T03:54:32;11.30;99.90
10433;DHT22;5263;48.680;9.004;2023-05-10T03:56:57;11.30;99.90
10433;DHT22;5263;48.680;9.004;2023-05-10T03:59:23;11.20;99.90
10433;DHT22;5263;48.680;9.004;2023-05-10T04:01:49;11.20;99.90
10433;DHT22;5263;48.680;9.004;2023-05-10T04:04:14;11.20;99.90
10433;DHT22;5263;48.680;9.004;2023-05-10T04:06:40;11.10;99.90
10433;DHT22;5263;48.680;9.004;2023-05-10T04:09:06;11.10;99.90
10433;DHT22;5263;48.680;9.004;2023-05-10T04:11:31;11.00;99.90
10433;DHT22;5263;48.680;9.004;2023-05-10T04:13:57;11.00;99.90
10433;DHT22;5263;48.680;9.004;2023-05-10T04:16:23;11.00;99.90
10433;DHT22;5263;48.680;9.004;2023-05-10T04:18:48;11.00;99.90
10433;DHT22;5263;48.680;9.004;2023-05-10T04:21:14;11.00;99.90
10433;DHT22;5263;48.680;9.004;2023-05-10T04:23:40;11.10;99.90
10433;DHT22;5263;48.680;9.004;2023-05-10T04:26:06;11.20;99.90
10433;DHT22;5263;48.680;9.004;2023-05-10T04:28:32;11.20;99.90
10433;DHT22;5263;48.680;9.004;2023-05-10T04:31:06;11.20;99.90
10433;DHT22;5263;48.680;9.004;2023-05-10T04:33:33;11.20;99.90
10433;DHT22;5263;48.680;9.004;2023-05-10T04:35:59;11.50;99.90
10433;DHT22;5263;48.680;9.004;2023-05-10T04:38:25;11.50;99.90
10433;DHT22;5263;48.680;9.004;2023-05-10T04:40:51;11.60;99.90
10433;DHT22;5263;48.680;9.004;2023-05-10T04:43:16;11.60;99.90
10433;DHT22;5263;48.680;9.004;2023-05-10T04:45:42;11.70;99.90
10433;DHT22;5263;48.680;9.004;2023-05-10T04:48:07;11.70;99.90
10433;DHT22;5263;48.680;9.004;2023-05-10T04:50:33;11.60;99.90
10433;DHT22;5263;48.680;9.004;2023-05-10T04:52:59;11.70;99.90
10433;DHT22;5263;48.680;9.004;2023-05-10T04:55:24;11.70;99.90
10433;DHT22;5263;48.680;9.004;2023-05-10T04:57:50;11.60;99.90
10433;DHT22;5263;48.680;9.004;2023-05-10T05:00:16;11.80;99.90
10433;DHT22;5263;48.680;9.004;2023-05-10T05:02:43;12.00;99.90
10433;DHT22;5263;48.680;9.004;2023-05-10T05:05:09;11.90;99.90
10433;DHT22;5263;48.680;9.004;2023-05-10T05:07:35;11.90;99.90
10433;DHT22;5263;48.680;9.004;2023-05-10T05:10:01;11.90;99.90
10433;DHT22;5263;48.680;9.004;2023-05-10T05:12:26;12.00;99.90
10433;DHT22;5263;48.680;9.004;2023-05-10T05:14:52;11.90;99.90
10433;DHT22;5263;48.680;9.004;2023-05-10T05:17:17;12.00;99.90
10433;DHT22;5263;48.680;9.004;2023-05-10T05:19:43;11.90;99.90
10433;DHT22;5263;48.680;9.004;2023-05-10T05:22:08;12.20;99.90
10433;DHT22;5263;48.680;9.004;2023-05-10T05:24:37;12.10;99.90
10433;DHT22;5263;48.680;9.004;2023-05-10T05:27:03;12.00;99.90
10433;DHT22;5263;48.680;9.004;2023-05-10T05:29:29;12.00;99.90
10433;DHT22;5263;48.680;9.004;2023-05-10T05:31:55;11.80;99.90
10433;DHT22;5263;48.680;9.004;2023-05-10T05:34:20;11.90;99.90
10433;DHT22;5263;48.680;9.004;2023-05-10T05:36:47;11.90;99.90
10433;DHT22;5263;48.680;9.004;2023-05-10T05:39:12;11.80;99.90
10433;DHT22;5263;48.680;9.004;2023-05-10T05:41:38;11.90;99.90
10433;DHT22;5263;48.680;9.004;2023-05-10T05:44:03;11.80;99.90
10433;DHT22;5263;48.680;9.004;2023-05-10T05:46:29;11.90;99.90
10433;DHT22;5263;48.680;9.004;2023-05-10T05:48:55;12.00;99.90
10433;DHT22;5263;48.680;9.004;2023-05-10T05:51:20;12.10;99.90
10433;DHT22;5263;48.680;9.004;2023-05-10T05:53:46;12.10;99.90
10433;DHT22;5263;48.680;9.004;2023-05-10T05:56:11;12.00;99.90
10433;DHT22;5263;48.680;9.004;2023-05-10T05:58:37;12.20;99.90
10433;DHT22;5263;48.680;9.004;2023-05-10T06:01:03;12.20;99.90
10433;DHT22;5263;48.680;9.004;2023-05-10T06:03:28;12.30;99.90
10433;DHT22;5263;48.680;9.004;2023-05-10T06:05:54;12.30;99.90
10433;DHT22;5263;48.680;9.004;2023-05-10T06:08:19;12.50;99.90
10433;DHT22;5263;48.680;9.004;2023-05-10T06:10:45;12.40;99.90
10433;DHT22;5263;48.680;9.004;2023-05-10T06:13:11;12.30;99.90
10433;DHT22;5263;48.680;9.004;2023-05-10T06:15:37;12.30;99.90
10433;DHT22;5263;48.680;9.004;2023-05-10T06:18:03;12.30;99.90
10433;DHT22;5263;48.680;9.004;2023-05-10T06:20:28;12.30;99.90
10433;DHT22;5263;48.680;9.004;2023-05-10T06:22:54;12.60;99.90
10433;DHT22;5263;48.680;9.004;2023-05-10T06:25:20;12.70;99.90
10433;DHT22;5263;48.680;9.004;2023-05-10T06:31:07;12.80;99.90
10433;DHT22;5263;48.680;9.004;2023-05-10T06:33:33;12.70;99.90
10433;DHT22;5263;48.680;9.004;2023-05-10T06:35:59;12.70;99.90
10433;DHT22;5263;48.680;9.004;2023-05-10T06:38:24;12.60;99.90
10433;DHT22;5263;48.680;9.004;2023-05-10T06:40:50;12.60;99.90
10433;DHT22;5263;48.680;9.004;2023-05-10T06:43:16;12.60;99.90
10433;DHT22;5263;48.680;9.004;2023-05-10T06:45:42;12.70;99.90
10433;DHT22;5263;48.680;9.004;2023-05-10T06:48:08;12.80;99.90
10433;DHT22;5263;48.680;9.004;2023-05-10T06:50:33;13.00;99.90
10433;DHT22;5263;48.680;9.004;2023-05-10T06:53:00;13.10;99.90
10433;DHT22;5263;48.680;9.004;2023-05-10T06:55:25;13.10;99.90
10433;DHT22;5263;48.680;9.004;2023-05-10T06:57:52;13.20;99.90
10433;DHT22;5263;48.680;9.004;2023-05-10T07:00:18;13.50;99.90
10433;DHT22;5263;48.680;9.004;2023-05-10T07:02:44;13.60;99.90
10433;DHT22;5263;48.680;9.004;2023-05-10T07:05:10;13.50;99.90
10433;DHT22;5263;48.680;9.004;2023-05-10T07:07:37;13.30;99.90
10433;DHT22;5263;48.680;9.004;2023-05-10T07:10:02;13.30;99.90
10433;DHT22;5263;48.680;9.004;2023-05-10T07:12:28;13.40;99.90
10433;DHT22;5263;48.680;9.004;2023-05-10T07:14:54;13.40;99.90
10433;DHT22;5263;48.680;9.004;2023-05-10T07:17:19;13.40;99.90
10433;DHT22;5263;48.680;9.004;2023-05-10T07:19:45;13.40;99.90
10433;DHT22;5263;48.680;9.004;2023-05-10T07:22:10;13.50;99.90
10433;DHT22;5263;48.680;9.004;2023-05-10T07:24:36;13.60;99.90
10433;DHT22;5263;48.680;9.004;2023-05-10T07:27:02;13.70;99.90
10433;DHT22;5263;48.680;9.004;2023-05-10T07:29:28;13.70;99.90
10433;DHT22;5263;48.680;9.004;2023-05-10T07:31:54;13.60;99.90
10433;DHT22;5263;48.680;9.004;2023-05-10T07:34:19;13.60;99.90
10433;DHT22;5263;48.680;9.004;2023-05-10T07:36:45;13.90;99.90
10433;DHT22;5263;48.680;9.004;2023-05-10T07:39:11;13.90;99.90
10433;DHT22;5263;48.680;9.004;2023-05-10T07:41:36;13.90;99.90
10433;DHT22;5263;48.680;9.004;2023-05-10T07:44:03;13.90;99.90
10433;DHT22;5263;48.680;9.004;2023-05-10T07:46:29;14.10;99.90
10433;DHT22;5263;48.680;9.004;2023-05-10T07:48:55;14.00;99.90
10433;DHT22;5263;48.680;9.004;2023-05-10T07:51:21;14.00;99.90
10433;DHT22;5263;48.680;9.004;2023-05-10T07:53:46;14.00;99.90
10433;DHT22;5263;48.680;9.004;2023-05-10T07:56:29;13.90;99.90
10433;DHT22;5263;48.680;9.004;2023-05-10T07:58:55;14.00;99.90
10433;DHT22;5263;48.680;9.004;2023-05-10T08:01:21;14.20;99.90
10433;DHT22;5263;48.680;9.004;2023-05-10T08:03:48;14.20;99.90
10433;DHT22;5263;48.680;9.004;2023-05-10T08:06:15;14.20;99.90
10433;DHT22;5263;48.680;9.004;2023-05-10T08:08:41;14.40;99.90
10433;DHT22;5263;48.680;9.004;2023-05-10T08:11:07;14.30;99.90
10433;DHT22;5263;48.680;9.004;2023-05-10T08:13:33;14.40;99.90
10433;DHT22;5263;48.680;9.004;2023-05-10T08:15:59;14.40;99.90
10433;DHT22;5263;48.680;9.004;2023-05-10T08:18:24;14.20;99.90
10433;DHT22;5263;48.680;9.004;2023-05-10T08:20:50;14.40;99.90
10433;DHT22;5263;48.680;9.004;2023-05-10T08:23:16;14.40;99.90
10433;DHT22;5263;48.680;9.004;2023-05-10T08:25:41;14.60;99.90
10433;DHT22;5263;48.680;9.004;2023-05-10T08:28:07;14.60;99.90
10433;DHT22;5263;48.680;9.004;2023-05-10T08:30:32;14.70;99.90
10433;DHT22;5263;48.680;9.004;2023-05-10T08:32:58;14.70;99.90
10433;DHT22;5263;48.680;9.004;2023-05-10T08:35:23;14.70;99.90
10433;DHT22;5263;48.680;9.004;2023-05-10T08:37:50;14.70;99.90
10433;DHT22;5263;48.680;9.004;2023-05-10T08:40:16;14.50;99.90
10433;DHT22;5263;48.680;9.004;2023-05-10T08:42:51;14.40;99.90
10433;DHT22;5263;48.680;9.004;2023-05-10T08:45:20;14.60;99.90
10433;DHT22;5263;48.680;9.004;2023-05-10T08:47:47;14.60;99.90
10433;DHT22;5263;48.680;9.004;2023-05-10T08:50:13;14.70;99.90
10433;DHT22;5263;48.680;9.004;2023-05-10T08:52:40;14.80;99.90
10433;DHT22;5263;48.680;9.004;2023-05-10T08:55:06;15.10;99.90
10433;DHT22;5263;48.680;9.004;2023-05-10T08:57:32;15.40;99.90
10433;DHT22;5263;48.680;9.004;2023-05-10T09:00:00;15.40;99.90
10433;DHT22;5263;48.680;9.004;2023-05-10T09:02:26;15.20;99.90
10433;DHT22;5263;48.680;9.004;2023-05-10T09:04:52;15.00;99.90
10433;DHT22;5263;48.680;9.004;2023-05-10T09:07:18;15.00;99.90
10433;DHT22;5263;48.680;9.004;2023-05-10T09:09:45;15.10;99.90
10433;DHT22;5263;48.680;9.004;2023-05-10T09:12:12;15.30;99.90
10433;DHT22;5263;48.680;9.004;2023-05-10T09:14:38;15.30;99.90
10433;DHT22;5263;48.680;9.004;2023-05-10T09:17:04;15.10;99.90
10433;DHT22;5263;48.680;9.004;2023-05-10T09:19:30;15.10;99.90
10433;DHT22;5263;48.680;9.004;2023-05-10T09:21:56;15.10;99.90
10433;DHT22;5263;48.680;9.004;2023-05-10T09:24:25;14.90;99.90
10433;DHT22;5263;48.680;9.004;2023-05-10T09:26:51;15.00;99.90
10433;DHT22;5263;48.680;9.004;2023-05-10T09:29:17;15.10;99.90
10433;DHT22;5263;48.680;9.004;2023-05-10T09:31:44;15.20;99.90
10433;DHT22;5263;48.680;9.004;2023-05-10T09:34:15;15.20;99.90
10433;DHT22;5263;48.680;9.004;2023-05-10T09:36:52;15.50;99.90
10433;DHT22;5263;48.680;9.004;2023-05-10T09:39:18;15.40;99.90
10433;DHT22;5263;48.680;9.004;2023-05-10T09:41:44;15.40;99.90
10433;DHT22;5263;48.680;9.004;2023-05-10T09:44:09;15.60;99.90
10433;DHT22;5263;48.680;9.004;2023-05-10T09:46:35;15.70;99.90
10433;DHT22;5263;48.680;9.004;2023-05-10T09:49:01;16.00;99.90
10433;DHT22;5263;48.680;9.004;2023-05-10T09:51:27;15.90;99.90
10433;DHT22;5263;48.680;9.004;2023-05-10T09:54:13;15.90;99.90
10433;DHT22;5263;48.680;9.004;2023-05-10T09:56:39;15.60;99.90
10433;DHT22;5263;48.680;9.004;2023-05-10T09:59:10;15.90;99.90
10433;DHT22;5263;48.680;9.004;2023-05-10T10:01:36;16.30;99.90
10433;DHT22;5263;48.680;9.004;2023-05-10T10:04:06;16.60;99.90
10433;DHT22;5263;48.680;9.004;2023-05-10T10:06:36;16.90;99.90
10433;DHT22;5263;48.680;9.004;2023-05-10T10:09:03;17.40;99.90
10433;DHT22;5263;48.680;9.004;2023-05-10T10:11:29;17.60;99.90
10433;DHT22;5263;48.680;9.004;2023-05-10T10:13:54;17.80;99.90
10433;DHT22;5263;48.680;9.004;2023-05-10T10:16:20;17.70;99.90
10433;DHT22;5263;48.680;9.004;2023-05-10T10:18:47;17.30;99.90
10433;DHT22;5263;48.680;9.004;2023-05-10T10:21:14;17.50;99.90
10433;DHT22;5263;48.680;9.004;2023-05-10T10:23:40;17.90;99.90
10433;DHT22;5263;48.680;9.004;2023-05-10T10:26:06;18.20;99.90
10433;DHT22;5263;48.680;9.004;2023-05-10T10:31:46;18.30;99.90
10433;DHT22;5263;48.680;9.004;2023-05-10T10:34:38;18.10;99.90
10433;DHT22;5263;48.680;9.004;2023-05-10T10:37:05;17.00;99.90
10433;DHT22;5263;48.680;9.004;2023-05-10T10:39:31;18.00;99.90
10433;DHT22;5263;48.680;9.004;2023-05-10T10:41:58;18.00;99.90
10433;DHT22;5263;48.680;9.004;2023-05-10T10:52:30;14.10;99.90
10433;DHT22;5263;48.680;9.004;2023-05-10T10:55:12;13.80;99.90
10433;DHT22;5263;48.680;9.004;2023-05-10T11:02:50;13.50;99.90
10433;DHT22;5263;48.680;9.004;2023-05-10T11:05:41;13.50;99.90
10433;DHT22;5263;48.680;9.004;2023-05-10T11:08:27;13.60;99.90
10433;DHT22;5263;48.680;9.004;2023-05-10T11:11:03;13.90;99.90
10433;DHT22;5263;48.680;9.004;2023-05-10T11:13:33;14.00;99.90
10433;DHT22;5263;48.680;9.004;2023-05-10T11:16:19;14.00;99.90
10433;DHT22;5263;48.680;9.004;2023-05-10T11:19:06;13.90;99.90
10433;DHT22;5263;48.680;9.004;2023-05-10T11:21:33;13.80;99.90
10433;DHT22;5263;48.680;9.004;2023-05-10T11:24:01;13.70;99.90
10433;DHT22;5263;48.680;9.004;2023-05-10T11:26:32;13.70;99.90
10433;DHT22;5263;48.680;9.004;2023-05-10T11:28:59;13.90;99.90
10433;DHT22;5263;48.680;9.004;2023-05-10T11:31:26;14.20;99.90
10433;DHT22;5263;48.680;9.004;2023-05-10T11:33:56;14.70;99.90
10433;DHT22;5263;48.680;9.004;2023-05-10T11:36:27;15.00;99.90
10433;DHT22;5263;48.680;9.004;2023-05-10T11:38:53;15.10;99.90
10433;DHT22;5263;48.680;9.004;2023-05-10T11:41:20;15.30;99.90
10433;DHT22;5263;48.680;9.004;2023-05-10T11:43:53;15.60;99.90
10433;DHT22;5263;48.680;9.004;2023-05-10T11:46:20;16.00;99.90
10433;DHT22;5263;48.680;9.004;2023-05-10T11:48:48;16.00;99.90
10433;DHT22;5263;48.680;9.004;2023-05-10T11:51:15;15.80;99.90
10433;DHT22;5263;48.680;9.004;2023-05-10T11:53:41;15.90;99.90
10433;DHT22;5263;48.680;9.004;2023-05-10T11:56:09;16.10;99.90
10433;DHT22;5263;48.680;9.004;2023-05-10T11:58:36;16.30;99.90
10433;DHT22;5263;48.680;9.004;2023-05-10T12:01:03;17.00;99.90
10433;DHT22;5263;48.680;9.004;2023-05-10T12:03:29;17.00;99.90
10433;DHT22;5263;48.680;9.004;2023-05-10T12:05:56;16.80;99.90
10433;DHT22;5263;48.680;9.004;2023-05-10T12:08:23;17.30;99.90
10433;DHT22;5263;48.680;9.004;2023-05-10T12:10:49;17.20;99.90
10433;DHT22;5263;48.680;9.004;2023-05-10T12:13:15;17.00;99.90
10433;DHT22;5263;48.680;9.004;2023-05-10T12:15:42;16.50;99.90
10433;DHT22;5263;48.680;9.004;2023-05-10T12:18:09;16.40;99.90
10433;DHT22;5263;48.680;9.004;2023-05-10T12:20:35;16.20;99.90
10433;DHT22;5263;48.680;9.004;2023-05-10T12:23:02;15.80;99.90
10433;DHT22;5263;48.680;9.004;2023-05-10T12:25:36;15.70;99.90
10433;DHT22;5263;48.680;9.004;2023-05-10T12:28:07;15.80;99.90
10433;DHT22;5263;48.680;9.004;2023-05-10T12:30:34;15.60;99.90
10433;DHT22;5263;48.680;9.004;2023-05-10T12:33:08;15.40;99.90
10433;DHT22;5263;48.680;9.004;2023-05-10T12:35:47;15.20;99.90
10433;DHT22;5263;48.680;9.004;2023-05-10T12:38:34;15.20;99.90
10433;DHT22;5263;48.680;9.004;2023-05-10T12:41:02;15.40;99.90
10433;DHT22;5263;48.680;9.004;2023-05-10T12:43:29;15.50;99.90
10433;DHT22;5263;48.680;9.004;2023-05-10T12:45:55;15.60;99.90
10433;DHT22;5263;48.680;9.004;2023-05-10T12:48:21;15.90;99.90
10433;DHT22;5263;48.680;9.004;2023-05-10T12:50:47;16.20;99.90
10433;DHT22;5263;48.680;9.004;2023-05-10T12:53:14;16.60;99.90
10433;DHT22;5263;48.680;9.004;2023-05-10T12:55:41;17.00;99.90
10433;DHT22;5263;48.680;9.004;2023-05-10T12:58:07;17.10;99.90
10433;DHT22;5263;48.680;9.004;2023-05-10T13:00:32;16.70;99.90
10433;DHT22;5263;48.680;9.004;2023-05-10T13:02:58;16.80;99.90
10433;DHT22;5263;48.680;9.004;2023-05-10T13:05:23;16.60;99.90
10433;DHT22;5263;48.680;9.004;2023-05-10T13:07:49;16.90;99.90
10433;DHT22;5263;48.680;9.004;2023-05-10T13:10:15;17.00;99.90
10433;DHT22;5263;48.680;9.004;2023-05-10T13:12:41;16.70;99.90
10433;DHT22;5263;48.680;9.004;2023-05-10T13:15:07;16.50;99.90
10433;DHT22;5263;48.680;9.004;2023-05-10T13:17:33;16.60;99.90
10433;DHT22;5263;48.680;9.004;2023-05-10T13:19:58;16.40;99.90
10433;DHT22;5263;48.680;9.004;2023-05-10T13:22:24;16.20;99.90
10433;DHT22;5263;48.680;9.004;2023-05-10T13:24:50;16.10;99.90
10433;DHT22;5263;48.680;9.004;2023-05-10T13:27:15;15.50;99.90
10433;DHT22;5263;48.680;9.004;2023-05-10T13:29:41;15.80;99.90
10433;DHT22;5263;48.680;9.004;2023-05-10T13:32:07;15.80;99.90
10433;DHT22;5263;48.680;9.004;2023-05-10T13:34:32;16.10;99.90
10433;DHT22;5263;48.680;9.004;2023-05-10T13:36:58;15.90;99.90
10433;DHT22;5263;48.680;9.004;2023-05-10T13:39:23;16.10;99.90
10433;DHT22;5263;48.680;9.004;2023-05-10T13:41:49;16.00;99.90
10433;DHT22;5263;48.680;9.004;2023-05-10T13:44:15;16.40;99.90
10433;DHT22;5263;48.680;9.004;2023-05-10T13:46:41;16.80;99.90
10433;DHT22;5263;48.680;9.004;2023-05-10T13:49:08;17.00;99.90
10433;DHT22;5263;48.680;9.004;2023-05-10T13:51:35;16.80;99.90
10433;DHT22;5263;48.680;9.004;2023-05-10T13:54:01;16.90;99.90
10433;DHT22;5263;48.680;9.004;2023-05-10T13:56:27;17.10;99.90
10433;DHT22;5263;48.680;9.004;2023-05-10T13:58:52;16.30;99.90
10433;DHT22;5263;48.680;9.004;2023-05-10T14:01:18;16.50;99.90
10433;DHT22;5263;48.680;9.004;2023-05-10T14:03:44;16.70;99.90
10433;DHT22;5263;48.680;9.004;2023-05-10T14:06:10;16.60;99.90
10433;DHT22;5263;48.680;9.004;2023-05-10T14:08:36;16.90;99.90
10433;DHT22;5263;48.680;9.004;2023-05-10T14:11:02;17.00;99.90
10433;DHT22;5263;48.680;9.004;2023-05-10T14:13:28;17.20;99.90
10433;DHT22;5263;48.680;9.004;2023-05-10T14:15:54;17.10;99.90
10433;DHT22;5263;48.680;9.004;2023-05-10T14:18:20;16.80;99.90
10433;DHT22;5263;48.680;9.004;2023-05-10T14:20:46;17.10;99.90
10433;DHT22;5263;48.680;9.004;2023-05-10T14:23:12;17.00;99.90
10433;DHT22;5263;48.680;9.004;2023-05-10T14:25:39;16.90;99.90
10433;DHT22;5263;48.680;9.004;2023-05-10T14:28:05;16.80;99.90
10433;DHT22;5263;48.680;9.004;2023-05-10T14:30:31;16.70;99.90
10433;DHT22;5263;48.680;9.004;2023-05-10T14:32:58;16.80;99.90
10433;DHT22;5263;48.680;9.004;2023-05-10T14:35:23;17.00;99.90
10433;DHT22;5263;48.680;9.004;2023-05-10T14:37:49;17.10;99.90
10433;DHT22;5263;48.680;9.004;2023-05-10T14:40:15;17.00;99.90
10433;DHT22;5263;48.680;9.004;2023-05-10T14:42:42;17.10;99.90
10433;DHT22;5263;48.680;9.004;2023-05-10T14:45:09;16.90;99.90
10433;DHT22;5263;48.680;9.004;2023-05-10T14:47:35;16.80;99.90
10433;DHT22;5263;48.680;9.004;2023-05-10T14:50:00;16.90;99.90
10433;DHT22;5263;48.680;9.004;2023-05-10T14:52:26;16.90;99.90
10433;DHT22;5263;48.680;9.004;2023-05-10T14:54:52;16.90;99.90
10433;DHT22;5263;48.680;9.004;2023-05-10T14:57:17;17.00;99.90
10433;DHT22;5263;48.680;9.004;2023-05-10T14:59:43;16.50;99.90
10433;DHT22;5263;48.680;9.004;2023-05-10T15:02:09;16.30;99.90
10433;DHT22;5263;48.680;9.004;2023-05-10T15:04:35;16.20;99.90
10433;DHT22;5263;48.680;9.004;2023-05-10T15:07:01;16.50;99.90
10433;DHT22;5263;48.680;9.004;2023-05-10T15:09:26;16.80;99.90
10433;DHT22;5263;48.680;9.004;2023-05-10T15:11:55;17.00;99.90
10433;DHT22;5263;48.680;9.004;2023-05-10T15:14:22;16.80;99.90
10433;DHT22;5263;48.680;9.004;2023-05-10T15:16:47;16.70;99.90
10433;DHT22;5263;48.680;9.004;2023-05-10T15:19:13;16.60;99.90
10433;DHT22;5263;48.680;9.004;2023-05-10T15:21:38;16.40;99.90
10433;DHT22;5263;48.680;9.004;2023-05-10T15:24:07;16.60;99.90
10433;DHT22;5263;48.680;9.004;2023-05-10T15:26:33;16.80;99.90
10433;DHT22;5263;48.680;9.004;2023-05-10T15:28:58;16.80;99.90
10433;DHT22;5263;48.680;9.004;2023-05-10T15:31:24;16.70;99.90
10433;DHT22;5263;48.680;9.004;2023-05-10T15:33:50;16.70;99.90
10433;DHT22;5263;48.680;9.004;2023-05-10T15:36:16;16.60;99.90
10433;DHT22;5263;48.680;9.004;2023-05-10T15:38:43;16.50;99.90
10433;DHT22;5263;48.680;9.004;2023-05-10T15:41:09;16.80;99.90
10433;DHT22;5263;48.680;9.004;2023-05-10T15:43:34;16.80;99.90
10433;DHT22;5263;48.680;9.004;2023-05-10T15:46:00;16.80;99.90
10433;DHT22;5263;48.680;9.004;2023-05-10T15:48:26;16.70;99.90
10433;DHT22;5263;48.680;9.004;2023-05-10T15:50:52;16.60;99.90
10433;DHT22;5263;48.680;9.004;2023-05-10T15:53:18;16.60;99.90
10433;DHT22;5263;48.680;9.004;2023-05-10T15:55:43;16.70;99.90
10433;DHT22;5263;48.680;9.004;2023-05-10T15:58:09;16.60;99.90
10433;DHT22;5263;48.680;9.004;2023-05-10T16:00:35;16.40;99.90
10433;DHT22;5263;48.680;9.004;2023-05-10T16:03:01;16.30;99.90
10433;DHT22;5263;48.680;9.004;2023-05-10T16:05:26;16.30;99.90
10433;DHT22;5263;48.680;9.004;2023-05-10T16:07:56;16.10;99.90
10433;DHT22;5263;48.680;9.004;2023-05-10T16:10:22;16.10;99.90
10433;DHT22;5263;48.680;9.004;2023-05-10T16:12:47;16.10;99.90
10433;DHT22;5263;48.680;9.004;2023-05-10T16:15:13;16.20;99.90
10433;DHT22;5263;48.680;9.004;2023-05-10T16:17:38;16.30;99.90
10433;DHT22;5263;48.680;9.004;2023-05-10T16:20:05;16.10;99.90
10433;DHT22;5263;48.680;9.004;2023-05-10T16:22:30;15.60;99.90
10433;DHT22;5263;48.680;9.004;2023-05-10T16:24:56;15.70;99.90